Reserve, New Mexico
Current Conditions -  °F | °C
As of 7:35 PM on Sunday 25 Jan 2015 (Local Time) from KJTC Reporting Station
Clear Clear  
Wind Chill: 23°   Ceiling: Unl
Heat Index: 30°   Visibility: 10mi
Dew Point: 21°   Wind: 8mph
Humidity: 69%   Direction: 200°SSW
Pressure: 30.36"   Gusts: NA
Location:  33.71°N, 108.76°W
Report Text: KJTC 260235Z AUTO 20007KT 10SM CLR M01/M06 A3036 RMK AO2
Loading
Personal Weather Stations






























Interactive Weather Map New forecast layout! Learn more

10-Day Weather Forecast

Advertisements
Track Severe Weather on mobile